Eviapetrol II — SY6858 — position and weather

sailwx.info

Track history (hours):
 
Tides and Currents Weather Stations Pressure Air Temp Water Temp Dewpoint Dewpoint Depression Visibility Wind Speed Wind Dir Waves Ship Positions

Eviapetrol II

Last reported at 2017-Apr-27 15:47 UTC. Time now 2017-Apr-27 16:37 UTC.
Position N 35°35' E 024°03'.

Length 78 m; draft 4.2 m.

Type: Tanker. MMSI: 240493000.

Date/timePositionNaut miles runAvg speedWind from/ knotsBaromVisibWave heightAir tempDewpointWater temp
2017-Apr-27 15:47N 35°35' E 024°03'3 9.6
2017-Apr-27 15:30N 35°38' E 024°02'17 9.4
2017-Apr-27 13:40N 35°55' E 023°58'2 9.5
2017-Apr-27 13:30N 35°56' E 023°58'5 9.5
2017-Apr-27 13:01N 36°01' E 023°57'5 9.5
2017-Apr-27 12:29N 36°06' E 023°56'16 9.7
2017-Apr-27 10:48N 36°22' E 023°52'3 9.9
2017-Apr-27 10:30N 36°25' E 023°51'5 9.8
2017-Apr-27 10:00N 36°30' E 023°50'5 9.8
2017-Apr-27 09:31N 36°34' E 023°49'5 9.9
2017-Apr-27 09:00N 36°39' E 023°48'5 9.9
2017-Apr-27 08:30N 36°44' E 023°47'510.0
2017-Apr-27 08:01N 36°49' E 023°45'5 9.8
2017-Apr-27 07:31N 36°54' E 023°45'5 9.9
2017-Apr-27 07:00N 36°59' E 023°44'510.1
2017-Apr-27 06:31N 37°04' E 023°42'5 9.9
2017-Apr-27 06:01N 37°09' E 023°41'510.1
2017-Apr-27 05:30N 37°14' E 023°40'510.2
2017-Apr-27 05:00N 37°19' E 023°39'510.2
2017-Apr-27 04:30N 37°24' E 023°38'510.2
2017-Apr-27 04:01N 37°29' E 023°36'510.2
2017-Apr-27 03:31N 37°33' E 023°35'510.3
2017-Apr-27 03:01N 37°37' E 023°30'5 9.7
2017-Apr-27 02:30N 37°39' E 023°25'510.1
2017-Apr-27 02:00N 37°40' E 023°18'5 9.0
2017-Apr-27 01:30N 37°45' E 023°18'510.1
2017-Apr-27 01:01N 37°50' E 023°19'510.1
2017-Apr-27 00:31N 37°54' E 023°22'5 9.7
2017-Apr-27 00:01N 37°58' E 023°26'3 6.8
2017-Apr-26 23:30N 38°01' E 023°28'3 5.4
2017-Apr-26 23:01N 38°01' E 023°32'3 6.3
2017-Apr-26 22:29N 38°02' E 023°36'0 0.0
2017-Apr-26 20:23N 38°02' E 023°36'0 0.0
2017-Apr-26 16:57N 38°02' E 023°36'0 0.0
2017-Apr-26 16:22N 38°02' E 023°36'0 0.0
2017-Apr-26 15:53N 38°02' E 023°36'0 0.0
2017-Apr-26 15:30N 38°02' E 023°36'0 0.0
2017-Apr-26 15:01N 38°02' E 023°36'0 0.0
2017-Apr-26 14:29N 38°02' E 023°36'0 0.1
2017-Apr-26 13:30N 38°02' E 023°36'3 5.5
2017-Apr-26 12:59N 38°02' E 023°32'0 0.0
2017-Apr-26 11:53N 38°02' E 023°32'0 0.0
2017-Apr-26 10:49N 38°02' E 023°32'0 0.0
2017-Apr-26 10:00N 38°02' E 023°32'0 0.1
2017-Apr-26 09:31N 38°02' E 023°32'3 5.1
2017-Apr-26 09:01N 38°01' E 023°29'4 7.3
2017-Apr-26 08:31N 37°58' E 023°26'5 9.0
2017-Apr-26 08:00N 37°54' E 023°23'5 9.3
2017-Apr-26 07:30N 37°51' E 023°28'5 9.7
2017-Apr-26 07:00N 37°50' E 023°34'4 8.7
2017-Apr-26 06:31N 37°50' E 023°39'510.3
2017-Apr-26 06:01N 37°46' E 023°42'510.4
2017-Apr-26 05:30N 37°42' E 023°46'810.5
2017-Apr-26 04:44N 37°38' E 023°55'16 9.8
2017-Apr-26 03:05N 37°43' E 024°15'110.7
2017-Apr-26 03:00N 37°44' E 024°16'510.5
2017-Apr-26 02:30N 37°47' E 024°21'510.4
2017-Apr-26 02:01N 37°50' E 024°26'510.6
2017-Apr-26 01:30N 37°54' E 024°31'610.4
2017-Apr-26 00:57N 37°58' E 024°36'43 0.9
2017-Apr-23 23:27N 37°55' E 025°31'410.0
2017-Apr-23 23:00N 37°53' E 025°26'610.0
2017-Apr-23 22:26N 37°50' E 025°20'410.0
2017-Apr-23 22:01N 37°48' E 025°15'1410.2
2017-Apr-23 20:39N 37°42' E 024°60'510.0
2017-Apr-23 20:10N 37°41' E 024°54'210.1
2017-Apr-23 19:59N 37°41' E 024°51'810.2
2017-Apr-23 19:13N 37°41' E 024°41'210.2
2017-Apr-23 18:59N 37°41' E 024°39'510.2
2017-Apr-23 18:30N 37°42' E 024°32'510.2
2017-Apr-23 18:00N 37°42' E 024°26'510.1
2017-Apr-23 17:31N 37°42' E 024°20'19 9.8
2017-Apr-23 15:33N 37°38' E 023°56'1 9.7
2017-Apr-23 15:29N 37°38' E 023°55'5 9.8
2017-Apr-23 15:00N 37°38' E 023°49'8 8.4
2017-Apr-23 14:00N 37°43' E 023°40'4 8.7
2017-Apr-23 13:30N 37°47' E 023°38'4 8.3
2017-Apr-23 13:01N 37°50' E 023°34'5 9.6
2017-Apr-23 12:30N 37°51' E 023°28'510.0
2017-Apr-23 12:01N 37°54' E 023°23'4 8.5
2017-Apr-23 11:30N 37°58' E 023°25'3 6.3
2017-Apr-23 11:00N 38°00' E 023°28'4 8.8
2017-Apr-23 10:31N 38°01' E 023°33'2 0.7
2017-Apr-23 07:34N 38°02' E 023°36'0 0.0
2017-Apr-23 07:13N 38°02' E 023°36'0 0.0
2017-Apr-23 06:55N 38°02' E 023°36'0 0.0
2017-Apr-23 02:37N 38°02' E 023°36'0 0.0
2017-Apr-22 20:37N 38°02' E 023°36'0 0.0
2017-Apr-22 17:21N 38°02' E 023°36'0 1.3
2017-Apr-22 17:00N 38°02' E 023°35'2 3.3
2017-Apr-22 16:30N 38°02' E 023°33'0 1.0
2017-Apr-22 16:01N 38°02' E 023°33'0 0.0
2017-Apr-22 15:30N 38°02' E 023°33'0 0.0
2017-Apr-22 15:00N 38°02' E 023°33'0 0.0
2017-Apr-22 14:30N 38°02' E 023°33'0 0.0
2017-Apr-22 13:29N 38°02' E 023°33'0 0.1
2017-Apr-22 13:00N 38°02' E 023°33'0 0.0
2017-Apr-22 12:31N 38°02' E 023°33'0 0.0
2017-Apr-22 12:00N 38°02' E 023°33'0 0.0
2017-Apr-22 11:31N 38°02' E 023°33'0 0.1
2017-Apr-22 11:00N 38°02' E 023°33'0 0.0
2017-Apr-22 10:30N 38°02' E 023°33'0 0.0
2017-Apr-22 10:00N 38°02' E 023°33'0 0.0
2017-Apr-22 09:30N 38°02' E 023°33'0 0.0
2017-Apr-22 09:00N 38°02' E 023°33'1 1.6
2017-Apr-22 08:31N 38°01' E 023°33'4 8.4
2017-Apr-22 08:01N 37°57' E 023°35'4 8.8
2017-Apr-22 07:30N 37°53' E 023°38'5 9.9
2017-Apr-22 07:00N 37°49' E 023°41'5 9.7
2017-Apr-22 06:30N 37°44' E 023°43'5 9.1
2017-Apr-22 05:59N 37°40' E 023°47'710.1
2017-Apr-22 05:20N 37°38' E 023°54'18 9.7
2017-Apr-22 03:30N 37°44' E 024°16'510.4
2017-Apr-22 03:00N 37°47' E 024°21'510.2
2017-Apr-22 02:30N 37°51' E 024°25'510.5
2017-Apr-22 02:00N 37°54' E 024°31'  
2017-Apr-17 20:15N 40°21' E 025°17'2 8.7
2017-Apr-17 20:00N 40°19' E 025°16'4 8.6
2017-Apr-17 19:30N 40°15' E 025°13'5 8.5
2017-Apr-17 18:58N 40°11' E 025°10'4 8.6
2017-Apr-17 18:29N 40°08' E 025°08'5 8.6
2017-Apr-17 17:57N 40°04' E 025°04'4 8.6
2017-Apr-17 17:26N 40°00' E 025°01'  
Track history (hours):
 
Tides and Currents Weather Stations Pressure Air Temp Water Temp Dewpoint Dewpoint Depression Visibility Wind Speed Wind Dir Waves Ship Positions

Eviapetrol II

Last reported at 2017-Apr-27 15:47 UTC. Time now 2017-Apr-27 16:37 UTC.
Position N 35°35' E 024°03'.

Length 78 m; draft 4.2 m.

Type: Tanker. MMSI: 240493000.

Date/timePositionNaut miles runAvg speedWind from/ knotsBaromVisibWave heightAir tempDewpointWater temp
2017-Apr-27 15:47N 35°35' E 024°03'3 9.6
2017-Apr-27 15:30N 35°38' E 024°02'17 9.4
2017-Apr-27 13:40N 35°55' E 023°58'2 9.5
2017-Apr-27 13:30N 35°56' E 023°58'5 9.5
2017-Apr-27 13:01N 36°01' E 023°57'5 9.5
2017-Apr-27 12:29N 36°06' E 023°56'16 9.7
2017-Apr-27 10:48N 36°22' E 023°52'3 9.9
2017-Apr-27 10:30N 36°25' E 023°51'5 9.8
2017-Apr-27 10:00N 36°30' E 023°50'5 9.8
2017-Apr-27 09:31N 36°34' E 023°49'5 9.9
2017-Apr-27 09:00N 36°39' E 023°48'5 9.9
2017-Apr-27 08:30N 36°44' E 023°47'510.0
2017-Apr-27 08:01N 36°49' E 023°45'5 9.8
2017-Apr-27 07:31N 36°54' E 023°45'5 9.9
2017-Apr-27 07:00N 36°59' E 023°44'510.1
2017-Apr-27 06:31N 37°04' E 023°42'5 9.9
2017-Apr-27 06:01N 37°09' E 023°41'510.1
2017-Apr-27 05:30N 37°14' E 023°40'510.2
2017-Apr-27 05:00N 37°19' E 023°39'510.2
2017-Apr-27 04:30N 37°24' E 023°38'510.2
2017-Apr-27 04:01N 37°29' E 023°36'510.2
2017-Apr-27 03:31N 37°33' E 023°35'510.3
2017-Apr-27 03:01N 37°37' E 023°30'5 9.7
2017-Apr-27 02:30N 37°39' E 023°25'510.1
2017-Apr-27 02:00N 37°40' E 023°18'5 9.0
2017-Apr-27 01:30N 37°45' E 023°18'510.1
2017-Apr-27 01:01N 37°50' E 023°19'510.1
2017-Apr-27 00:31N 37°54' E 023°22'5 9.7
2017-Apr-27 00:01N 37°58' E 023°26'3 6.8
2017-Apr-26 23:30N 38°01' E 023°28'3 5.4
2017-Apr-26 23:01N 38°01' E 023°32'3 6.3
2017-Apr-26 22:29N 38°02' E 023°36'0 0.0
2017-Apr-26 20:23N 38°02' E 023°36'0 0.0
2017-Apr-26 16:57N 38°02' E 023°36'0 0.0
2017-Apr-26 16:22N 38°02' E 023°36'0 0.0
2017-Apr-26 15:53N 38°02' E 023°36'0 0.0
2017-Apr-26 15:30N 38°02' E 023°36'0 0.0
2017-Apr-26 15:01N 38°02' E 023°36'0 0.0
2017-Apr-26 14:29N 38°02' E 023°36'0 0.1
2017-Apr-26 13:30N 38°02' E 023°36'3 5.5
2017-Apr-26 12:59N 38°02' E 023°32'0 0.0
2017-Apr-26 11:53N 38°02' E 023°32'0 0.0
2017-Apr-26 10:49N 38°02' E 023°32'0 0.0
2017-Apr-26 10:00N 38°02' E 023°32'0 0.1
2017-Apr-26 09:31N 38°02' E 023°32'3 5.1
2017-Apr-26 09:01N 38°01' E 023°29'4 7.3
2017-Apr-26 08:31N 37°58' E 023°26'5 9.0
2017-Apr-26 08:00N 37°54' E 023°23'5 9.3
2017-Apr-26 07:30N 37°51' E 023°28'5 9.7
2017-Apr-26 07:00N 37°50' E 023°34'4 8.7
2017-Apr-26 06:31N 37°50' E 023°39'510.3
2017-Apr-26 06:01N 37°46' E 023°42'510.4
2017-Apr-26 05:30N 37°42' E 023°46'810.5
2017-Apr-26 04:44N 37°38' E 023°55'16 9.8
2017-Apr-26 03:05N 37°43' E 024°15'110.7
2017-Apr-26 03:00N 37°44' E 024°16'510.5
2017-Apr-26 02:30N 37°47' E 024°21'510.4
2017-Apr-26 02:01N 37°50' E 024°26'510.6
2017-Apr-26 01:30N 37°54' E 024°31'610.4
2017-Apr-26 00:57N 37°58' E 024°36'43 0.9
2017-Apr-23 23:27N 37°55' E 025°31'410.0
2017-Apr-23 23:00N 37°53' E 025°26'610.0
2017-Apr-23 22:26N 37°50' E 025°20'410.0
2017-Apr-23 22:01N 37°48' E 025°15'1410.2
2017-Apr-23 20:39N 37°42' E 024°60'510.0
2017-Apr-23 20:10N 37°41' E 024°54'210.1
2017-Apr-23 19:59N 37°41' E 024°51'810.2
2017-Apr-23 19:13N 37°41' E 024°41'210.2
2017-Apr-23 18:59N 37°41' E 024°39'510.2
2017-Apr-23 18:30N 37°42' E 024°32'510.2
2017-Apr-23 18:00N 37°42' E 024°26'510.1
2017-Apr-23 17:31N 37°42' E 024°20'19 9.8
2017-Apr-23 15:33N 37°38' E 023°56'1 9.7
2017-Apr-23 15:29N 37°38' E 023°55'5 9.8
2017-Apr-23 15:00N 37°38' E 023°49'8 8.4
2017-Apr-23 14:00N 37°43' E 023°40'4 8.7
2017-Apr-23 13:30N 37°47' E 023°38'4 8.3
2017-Apr-23 13:01N 37°50' E 023°34'5 9.6
2017-Apr-23 12:30N 37°51' E 023°28'510.0
2017-Apr-23 12:01N 37°54' E 023°23'4 8.5
2017-Apr-23 11:30N 37°58' E 023°25'3 6.3
2017-Apr-23 11:00N 38°00' E 023°28'4 8.8
2017-Apr-23 10:31N 38°01' E 023°33'2 0.7
2017-Apr-23 07:34N 38°02' E 023°36'0 0.0
2017-Apr-23 07:13N 38°02' E 023°36'0 0.0
2017-Apr-23 06:55N 38°02' E 023°36'0 0.0
2017-Apr-23 02:37N 38°02' E 023°36'0 0.0
2017-Apr-22 20:37N 38°02' E 023°36'0 0.0
2017-Apr-22 17:21N 38°02' E 023°36'0 1.3
2017-Apr-22 17:00N 38°02' E 023°35'2 3.3
2017-Apr-22 16:30N 38°02' E 023°33'0 1.0
2017-Apr-22 16:01N 38°02' E 023°33'0 0.0
2017-Apr-22 15:30N 38°02' E 023°33'0 0.0
2017-Apr-22 15:00N 38°02' E 023°33'0 0.0
2017-Apr-22 14:30N 38°02' E 023°33'0 0.0
2017-Apr-22 13:29N 38°02' E 023°33'0 0.1
2017-Apr-22 13:00N 38°02' E 023°33'0 0.0
2017-Apr-22 12:31N 38°02' E 023°33'0 0.0
2017-Apr-22 12:00N 38°02' E 023°33'0 0.0
2017-Apr-22 11:31N 38°02' E 023°33'0 0.1
2017-Apr-22 11:00N 38°02' E 023°33'0 0.0
2017-Apr-22 10:30N 38°02' E 023°33'0 0.0
2017-Apr-22 10:00N 38°02' E 023°33'0 0.0
2017-Apr-22 09:30N 38°02' E 023°33'0 0.0
2017-Apr-22 09:00N 38°02' E 023°33'1 1.6
2017-Apr-22 08:31N 38°01' E 023°33'4 8.4
2017-Apr-22 08:01N 37°57' E 023°35'4 8.8
2017-Apr-22 07:30N 37°53' E 023°38'5 9.9
2017-Apr-22 07:00N 37°49' E 023°41'5 9.7
2017-Apr-22 06:30N 37°44' E 023°43'5 9.1
2017-Apr-22 05:59N 37°40' E 023°47'710.1
2017-Apr-22 05:20N 37°38' E 023°54'18 9.7
2017-Apr-22 03:30N 37°44' E 024°16'510.4
2017-Apr-22 03:00N 37°47' E 024°21'510.2
2017-Apr-22 02:30N 37°51' E 024°25'510.5
2017-Apr-22 02:00N 37°54' E 024°31'  
2017-Apr-17 20:15N 40°21' E 025°17'2 8.7
2017-Apr-17 20:00N 40°19' E 025°16'4 8.6
2017-Apr-17 19:30N 40°15' E 025°13'5 8.5
2017-Apr-17 18:58N 40°11' E 025°10'4 8.6
2017-Apr-17 18:29N 40°08' E 025°08'5 8.6
2017-Apr-17 17:57N 40°04' E 025°04'4 8.6
2017-Apr-17 17:26N 40°00' E 025°01'  

Dump ship's entire track history